sim
Sign-in with your pilot id or email,
or register
Callsign
Passwort

Schedule Details

Flight Number: DLH587 (2)
Departure: Cairo International Airport (HECA) at 05:40
Arrival: Munich Airport (EDDM) at 09:45
Route: Lufthansa Passenger Schedule. Enter filed route here before submitting Pirep.

Weather Information
Getting current METAR information for HECA 220030Z 08014KT CAVOK 25/20 Q1012 NOSIG
Getting current METAR information for EDDM 220020Z VRB01KT 7000 3000NE R08L/0450N BCFG NSC 10/09 Q1015 NOSIG

Schedule Frequency

Route Map